Time;durP1;ratioP1;P1;durP2;ratioP2;P2;SDS_P1;SDS_P2;PMS_P1;PMS_P2;Temp;Humidity;BMP_temperature;BMP_pressure;BME280_temperature;BME280_humidity;BME280_pressure;Samples;Min_cycle;Max_cycle;Signal;HPM_P1;HPM_P2
2022/05/28 00:00:02;;;;;;;;;;;;;;;12.65;70.71;97279.56;30001;982;1882;-55
2022/05/28 00:00:35;;;;;;;;;;;;;;;12.63;70.42;97284.50;30001;982;1878;-55
2022/05/28 00:01:11;;;;;;;;;;;;;;;12.57;71.15;97291.91;30001;982;1869;-58
2022/05/28 00:01:43;;;;;;;;;;;;;;;12.55;71.10;97277.78;30001;983;1868;-57
2022/05/28 00:02:14;;;;;;;;;;;;;;;12.49;73.18;97283.59;30001;983;1868;-57
2022/05/28 00:02:46;;;;;;;;;;;;;;;12.45;72.27;97280.69;30001;983;1868;-56
2022/05/28 00:03:19;;;;;;;;;;;;;;;12.43;72.95;97273.94;30001;983;1881;-56
2022/05/28 00:03:57;;;;;;;;;;;;;;;12.39;72.96;97279.16;30001;983;1877;-57
2022/05/28 00:04:32;;;;;;;;;;;;;;;12.37;73.27;97276.72;30001;983;1881;-58
2022/05/28 00:05:04;;;;;;;;;;;;;;;12.34;73.64;97274.59;30001;986;1869;-57
2022/05/28 00:05:38;;;;;;;;;;;;;;;12.33;73.94;97274.88;30001;983;1882;-56
2022/05/28 00:06:10;;;;;;;;;;;;;;;12.29;74.87;97273.84;30001;982;1864;-57
2022/05/28 00:06:41;;;;;;;;;;;;;;;12.26;75.32;97280.69;30001;982;1873;-56
2022/05/28 00:07:12;;;;;;;;;;;;;;;12.24;75.12;97273.91;30001;982;1877;-57
2022/05/28 00:07:43;;;;;;;;;;;;;;;12.21;74.93;97269.88;30001;982;1882;-55
2022/05/28 00:08:14;;;;;;;;;;;;;;;12.20;76.11;97267.44;30001;982;1877;-57
2022/05/28 00:08:45;;;;;;;;;;;;;;;12.16;77.62;97263.69;30001;983;1868;-57
2022/05/28 00:09:16;;;;;;;;;;;;;;;12.13;76.79;97264.31;30001;983;1868;-55
2022/05/28 00:09:50;;;;;;;;;;;;;;;12.11;77.08;97266.50;30001;983;1881;-57
2022/05/28 00:10:21;;;;;;;;;;;;;;;12.11;76.78;97271.94;30001;983;1877;-56
2022/05/28 00:10:54;;;;;;;;;;;;;;;12.10;77.08;97270.31;30001;983;1881;-57
2022/05/28 00:11:27;;;;;;;;;;;;;;;12.07;77.55;97264.37;30001;983;1864;-57
2022/05/28 00:12:03;;;;;;;;;;;;;;;12.05;76.80;97269.28;30001;986;1864;-57
2022/05/28 00:12:37;;;;;;;;;;;;;;;12.04;76.80;97262.22;30001;983;1881;-57
2022/05/28 00:13:10;;;;;;;;;;;;;;;12.04;77.04;97264.94;30001;983;1877;-56
2022/05/28 00:13:43;;;;;;;;;;;;;;;12.05;76.49;97268.47;30001;982;1882;-57
2022/05/28 00:14:17;;;;;;;;;;;;;;;12.07;76.39;97267.09;30001;982;1878;-56
2022/05/28 00:14:48;;;;;;;;;;;;;;;12.05;76.06;97269.28;30001;982;1882;-57
2022/05/28 00:15:19;;;;;;;;;;;;;;;12.06;76.38;97276.34;30001;982;1877;-57
2022/05/28 00:15:50;;;;;;;;;;;;;;;12.04;76.24;97273.09;30001;982;1869;-59
2022/05/28 00:16:21;;;;;;;;;;;;;;;12.04;76.49;97281.28;30001;983;1868;-57
2022/05/28 00:16:54;;;;;;;;;;;;;;;12.06;75.73;97270.91;30001;983;1881;-58
2022/05/28 00:17:26;;;;;;;;;;;;;;;12.06;76.22;97283.69;30001;983;1877;-56
2022/05/28 00:17:58;;;;;;;;;;;;;;;12.04;76.06;97277.75;30001;986;1873;-56
2022/05/28 00:18:31;;;;;;;;;;;;;;;12.03;76.48;97285.09;30001;983;1882;-57
2022/05/28 00:19:02;;;;;;;;;;;;;;;12.02;76.75;97280.75;30001;983;1877;-59
2022/05/28 00:19:33;;;;;;;;;;;;;;;11.99;76.58;97284.06;30001;983;1881;-57
2022/05/28 00:20:06;;;;;;;;;;;;;;;11.99;76.54;97292.22;30001;983;1877;-56
2022/05/28 00:20:39;;;;;;;;;;;;;;;11.96;77.45;97292.78;30001;983;1869;-56
2022/05/28 00:21:11;;;;;;;;;;;;;;;11.93;77.76;97289.84;30001;982;1868;-57
2022/05/28 00:21:42;;;;;;;;;;;;;;;11.90;77.25;97293.94;30001;982;1881;-57
2022/05/28 00:22:14;;;;;;;;;;;;;;;11.88;77.80;97290.72;30001;982;1878;-58
2022/05/28 00:22:45;;;;;;;;;;;;;;;11.85;78.45;97296.72;30001;982;1869;-57
2022/05/28 00:23:16;;;;;;;;;;;;;;;11.84;78.08;97288.88;30001;982;1869;-57
2022/05/28 00:23:48;;;;;;;;;;;;;;;11.81;78.67;97290.25;30001;983;1881;-58
2022/05/28 00:24:22;;;;;;;;;;;;;;;11.76;79.05;97293.03;30001;983;1864;-57
2022/05/28 00:24:54;;;;;;;;;;;;;;;11.74;79.26;97300.66;30001;983;1872;-56
2022/05/28 00:25:25;;;;;;;;;;;;;;;11.71;79.70;97290.38;30001;983;1877;-56
2022/05/28 00:25:56;;;;;;;;;;;;;;;11.70;80.70;97294.19;30001;983;1881;-56
2022/05/28 00:26:27;;;;;;;;;;;;;;;11.66;82.01;97295.84;30001;983;1864;-56
2022/05/28 00:26:58;;;;;;;;;;;;;;;11.64;82.11;97296.16;30001;983;1873;-56
2022/05/28 00:27:29;;;;;;;;;;;;;;;11.61;81.70;97291.28;30001;983;1877;-57
2022/05/28 00:28:03;;;;;;;;;;;;;;;11.60;81.71;97295.09;30001;983;1882;-56
2022/05/28 00:28:34;;;;;;;;;;;;;;;11.59;81.84;97287.25;30001;982;1877;-57
2022/05/28 00:29:09;;;;;;;;;;;;;;;11.57;81.23;97289.44;30001;982;1882;-57
2022/05/28 00:29:40;;;;;;;;;;;;;;;11.54;81.49;97296.25;30001;982;1877;-57
2022/05/28 00:30:16;;;;;;;;;;;;;;;11.52;81.53;97289.50;30001;982;1882;-56
2022/05/28 00:30:48;;;;;;;;;;;;;;;11.50;81.60;97283.53;30001;987;1869;-57
2022/05/28 00:31:21;;;;;;;;;;;;;;;11.50;81.92;97288.97;30001;983;1876;-56
2022/05/28 00:31:53;;;;;;;;;;;;;;;11.47;82.17;97281.38;30001;983;1868;-56
2022/05/28 00:32:24;;;;;;;;;;;;;;;11.48;82.01;97283.00;30001;983;1877;-58
2022/05/28 00:32:55;;;;;;;;;;;;;;;11.48;81.74;97285.72;30001;983;1881;-60
2022/05/28 00:33:26;;;;;;;;;;;;;;;11.48;81.96;97286.53;30001;983;1886;-57
2022/05/28 00:33:57;;;;;;;;;;;;;;;11.47;82.05;97278.66;30001;983;1881;-58
2022/05/28 00:34:29;;;;;;;;;;;;;;;11.46;81.91;97277.06;30001;983;1886;-58
2022/05/28 00:35:00;;;;;;;;;;;;;;;11.44;81.73;97280.06;30001;983;1868;-56
2022/05/28 00:35:31;;;;;;;;;;;;;;;11.45;82.59;97280.87;30001;983;1864;-59
2022/05/28 00:36:04;;;;;;;;;;;;;;;11.43;82.71;97283.09;30001;983;1881;-55
2022/05/28 00:36:35;;;;;;;;;;;;;;;11.45;82.24;97280.87;30001;982;1886;-56
2022/05/28 00:37:06;;;;;;;;;;;;;;;11.45;81.98;97278.16;30001;982;1882;-58
2022/05/28 00:37:38;;;;;;;;;;;;;;;11.42;81.98;97282.28;30001;982;1886;-55
2022/05/28 00:38:09;;;;;;;;;;;;;;;11.41;81.57;97281.47;30001;982;1882;-58
2022/05/28 00:38:41;;;;;;;;;;;;;;;11.40;81.55;97285.28;30001;983;1885;-55
2022/05/28 00:39:11;;;;;;;;;;;;;;;11.40;81.85;97285.28;30001;983;1881;-59
2022/05/28 00:39:46;;;;;;;;;;;;;;;11.39;82.06;97278.22;30001;983;1886;-58
2022/05/28 00:40:22;;;;;;;;;;;;;;;11.37;82.56;97283.12;30001;983;1831;-57
2022/05/28 00:40:55;;;;;;;;;;;;;;;11.36;82.58;97278.81;30001;983;1873;-58
2022/05/28 00:41:26;;;;;;;;;;;;;;;11.35;82.62;97285.34;30001;983;1873;-58
2022/05/28 00:41:57;;;;;;;;;;;;;;;11.36;82.56;97284.25;30001;983;1886;-58
2022/05/28 00:42:29;;;;;;;;;;;;;;;11.36;82.48;97291.56;30001;983;1882;-55
2022/05/28 00:43:00;;;;;;;;;;;;;;;11.35;82.51;97288.06;30001;982;1886;-58
2022/05/28 00:43:32;;;;;;;;;;;;;;;11.37;82.56;97290.47;30001;982;1882;-56
2022/05/28 00:44:04;;;;;;;;;;;;;;;11.36;82.98;97295.09;30001;982;1886;-56
2022/05/28 00:44:35;;;;;;;;;;;;;;;11.35;82.96;97287.25;30001;982;1882;-55
2022/05/28 00:45:06;;;;;;;;;;;;;;;11.34;82.61;97294.59;30001;982;1886;-56
2022/05/28 00:45:38;;;;;;;;;;;;;;;11.33;82.94;97289.44;30001;982;1869;-58
2022/05/28 00:46:29;;;;;;;;;;;;;;;11.30;82.90;97296.25;30001;983;1863;-58
2022/05/28 00:47:05;;;;;;;;;;;;;;;11.32;82.45;97296.78;30001;983;1864;-58
2022/05/28 00:47:38;;;;;;;;;;;;;;;11.32;82.08;97288.63;30001;983;1877;-57
2022/05/28 00:48:09;;;;;;;;;;;;;;;11.30;82.23;97284.56;30001;983;1881;-58
2022/05/28 00:48:46;;;;;;;;;;;;;;;11.30;82.05;97296.25;30001;983;1886;-58
2022/05/28 00:49:21;;;;;;;;;;;;;;;11.28;82.25;97287.56;30001;983;1882;-58
2022/05/28 00:49:52;;;;;;;;;;;;;;;11.26;82.64;97283.53;30001;983;1873;-56
2022/05/28 00:50:23;;;;;;;;;;;;;;;11.24;83.33;97283.81;30001;962;1893;-55
2022/05/28 00:50:55;;;;;;;;;;;;;;;11.21;84.21;97292.53;30001;982;1886;-58
2022/05/28 00:51:32;;;;;;;;;;;;;;;11.18;84.49;97286.84;30001;982;1882;-56
2022/05/28 00:52:05;;;;;;;;;;;;;;;11.15;85.03;97287.44;30001;982;1873;-58
2022/05/28 00:52:36;;;;;;;;;;;;;;;11.13;84.51;97292.34;30001;982;1873;-56
2022/05/28 00:53:07;;;;;;;;;;;;;;;11.11;85.03;97292.63;30001;982;1886;-58
2022/05/28 00:53:38;;;;;;;;;;;;;;;11.11;85.25;97291.81;30001;982;1882;-58
2022/05/28 00:54:10;;;;;;;;;;;;;;;11.10;86.12;97291.00;30001;983;1885;-58
2022/05/28 00:54:44;;;;;;;;;;;;;;;11.09;85.54;97289.38;30001;983;1881;-57
2022/05/28 00:55:17;;;;;;;;;;;;;;;11.08;85.33;97294.03;30001;983;1885;-58
2022/05/28 00:55:48;;;;;;;;;;;;;;;11.08;84.69;97293.22;30001;983;1881;-56
2022/05/28 00:56:18;;;;;;;;;;;;;;;11.08;85.02;97298.66;30001;983;1872;-58
2022/05/28 00:56:50;;;;;;;;;;;;;;;11.06;85.71;97295.41;30001;983;1872;-59
2022/05/28 00:57:22;;;;;;;;;;;;;;;11.06;86.60;97292.69;30001;983;1886;-56
2022/05/28 00:57:53;;;;;;;;;;;;;;;11.05;86.14;97296.50;30001;982;1881;-56
2022/05/28 00:58:23;;;;;;;;;;;;;;;11.04;86.22;97295.69;30001;982;1886;-58
2022/05/28 00:58:54;;;;;;;;;;;;;;;11.03;86.17;97285.94;30001;982;1882;-59
2022/05/28 00:59:25;;;;;;;;;;;;;;;11.03;86.01;97285.13;30001;982;1886;-59
2022/05/28 00:59:57;;;;;;;;;;;;;;;10.99;85.95;97284.88;30001;982;1882;-56
2022/05/28 01:00:33;;;;;;;;;;;;;;;10.96;85.93;97284.62;30001;982;1886;-56
2022/05/28 01:01:05;;;;;;;;;;;;;;;10.95;86.14;97285.72;30001;982;1869;-58
2022/05/28 01:01:38;;;;;;;;;;;;;;;10.92;85.92;97284.41;30001;983;1877;-58
2022/05/28 01:02:21;;;;;;;;;;;;;;;10.89;86.56;97281.44;30001;983;1881;-59
2022/05/28 01:03:12;;;;;;;;;;;;;;;10.87;87.19;97280.91;30001;983;1872;-57
2022/05/28 01:04:11;;;;;;;;;;;;;;;10.87;86.89;97286.34;30001;983;1868;-58
2022/05/28 01:04:48;;;;;;;;;;;;;;;10.86;86.82;97284.72;30001;983;1882;-57
2022/05/28 01:05:37;;;;;;;;;;;;;;;10.87;86.53;97286.34;30001;983;1881;-59
2022/05/28 01:06:11;;;;;;;;;;;;;;;10.88;86.02;97290.69;30001;982;1877;-58
2022/05/28 01:06:56;;;;;;;;;;;;;;;10.88;86.13;97287.97;30001;982;1869;-57
2022/05/28 01:07:38;;;;;;;;;;;;;;;10.89;85.89;97284.16;30001;982;1878;-57
2022/05/28 01:08:18;;;;;;;;;;;;;;;10.89;86.01;97284.16;30001;982;1882;-56
2022/05/28 01:09:17;;;;;;;;;;;;;;;10.89;86.30;97284.16;30001;983;1885;-58
2022/05/28 01:09:57;;;;;;;;;;;;;;;10.90;87.32;97288.47;30001;983;1877;-57
2022/05/28 01:10:41;;;;;;;;;;;;;;;10.89;87.17;97292.28;30001;983;1885;-57
2022/05/28 01:11:31;;;;;;;;;;;;;;;10.90;87.16;97293.91;30001;983;1881;-59
2022/05/28 01:12:24;;;;;;;;;;;;;;;10.88;88.03;97294.19;30001;983;1864;-57
2022/05/28 01:13:01;;;;;;;;;;;;;;;10.88;87.71;97287.97;30001;983;1868;-57
2022/05/28 01:13:37;;;;;;;;;;;;;;;10.89;87.23;97284.16;30001;982;1886;-56
2022/05/28 01:14:11;;;;;;;;;;;;;;;10.90;86.63;97285.78;30001;982;1882;-57
2022/05/28 01:14:48;;;;;;;;;;;;;;;10.90;86.42;97286.59;30001;982;1886;-57
2022/05/28 01:15:22;;;;;;;;;;;;;;;10.89;86.83;97284.16;30001;982;1882;-58
2022/05/28 01:15:57;;;;;;;;;;;;;;;10.90;87.11;97285.78;30001;983;1885;-58
2022/05/28 01:16:32;;;;;;;;;;;;;;;10.87;86.42;97286.34;30001;983;1881;-57
2022/05/28 01:17:09;;;;;;;;;;;;;;;10.87;86.70;97286.34;30001;983;1872;-59
2022/05/28 01:17:44;;;;;;;;;;;;;;;10.86;86.51;97284.72;30001;983;1873;-58
2022/05/28 01:18:29;;;;;;;;;;;;;;;10.84;86.40;97286.91;30001;983;1886;-59
2022/05/28 01:19:38;;;;;;;;;;;;;;;10.83;86.25;97285.28;30001;983;1881;-57
2022/05/28 01:20:13;;;;;;;;;;;;;;;10.80;86.08;97291.28;30001;983;1882;-57
2022/05/28 01:20:52;;;;;;;;;;;;;;;10.81;85.56;97287.47;30001;982;1882;-59
2022/05/28 01:21:36;;;;;;;;;;;;;;;10.80;85.22;97286.66;30001;982;1886;-57
2022/05/28 01:22:18;;;;;;;;;;;;;;;10.83;84.88;97291.53;30001;982;1869;-58
2022/05/28 01:22:57;;;;;;;;;;;;;;;10.83;85.33;97296.13;30001;982;1865;-57
2022/05/28 01:23:37;;;;;;;;;;;;;;;10.80;85.32;97292.09;30001;983;1881;-57
2022/05/28 01:24:22;;;;;;;;;;;;;;;10.74;85.59;97282.41;30001;983;1872;-58
2022/05/28 01:25:00;;;;;;;;;;;;;;;10.73;84.93;97289.72;30001;983;1873;-59
2022/05/28 01:25:56;;;;;;;;;;;;;;;10.77;85.35;97291.84;30001;983;1886;-57
2022/05/28 01:26:50;;;;;;;;;;;;;;;10.74;85.08;97294.03;30001;983;1877;-58
2022/05/28 01:27:38;;;;;;;;;;;;;;;10.72;85.42;97288.09;30001;983;1882;-57
2022/05/28 01:28:11;;;;;;;;;;;;;;;10.71;85.57;97289.19;30001;982;1868;-57
2022/05/28 01:28:45;;;;;;;;;;;;;;;10.71;85.60;97289.19;30001;982;1877;-58
2022/05/28 01:29:17;;;;;;;;;;;;;;;10.72;85.39;97287.28;30001;982;1882;-58
2022/05/28 01:29:50;;;;;;;;;;;;;;;10.71;85.63;97289.19;30001;982;1886;-57
2022/05/28 01:30:22;;;;;;;;;;;;;;;10.72;85.29;97285.38;30001;982;1882;-58
2022/05/28 01:30:54;;;;;;;;;;;;;;;10.72;85.19;97288.09;30001;983;1885;-57
2022/05/28 01:31:39;;;;;;;;;;;;;;;10.72;84.64;97288.09;30001;983;1881;-57
2022/05/28 01:32:12;;;;;;;;;;;;;;;10.70;84.14;97287.56;30001;983;1886;-57
2022/05/28 01:32:44;;;;;;;;;;;;;;;10.70;83.56;97284.06;30001;983;1881;-58
2022/05/28 01:33:18;;;;;;;;;;;;;;;10.70;83.72;97287.56;30001;983;1873;-58
2022/05/28 01:33:49;;;;;;;;;;;;;;;10.70;84.15;97287.56;30001;983;1873;-57
2022/05/28 01:34:21;;;;;;;;;;;;;;;10.69;84.18;97285.97;30001;983;1886;-58
2022/05/28 01:34:53;;;;;;;;;;;;;;;10.68;84.09;97289.75;30001;983;1800;-58
2022/05/28 01:35:26;;;;;;;;;;;;;;;10.68;84.22;97289.75;30001;983;1886;-58
2022/05/28 01:35:58;;;;;;;;;;;;;;;10.69;84.51;97285.16;30001;982;1882;-58
2022/05/28 01:36:30;;;;;;;;;;;;;;;10.68;84.62;97284.34;30001;982;1873;-58
2022/05/28 01:37:02;;;;;;;;;;;;;;;10.68;83.91;97281.63;30001;982;1860;-59
2022/05/28 01:37:36;;;;;;;;;;;;;;;10.67;84.32;97282.72;30001;982;1886;-57
2022/05/28 01:38:09;;;;;;;;;;;;;;;10.66;84.57;97280.28;30001;983;1868;-57
2022/05/28 01:38:41;;;;;;;;;;;;;;;10.64;84.84;97279.75;30001;983;1876;-58
2022/05/28 01:39:12;;;;;;;;;;;;;;;10.61;85.30;97275.69;30001;983;1881;-57
2022/05/28 01:39:46;;;;;;;;;;;;;;;10.60;85.39;97282.22;30001;983;1886;-57
2022/05/28 01:40:18;;;;;;;;;;;;;;;10.58;85.07;97276.25;30001;983;1881;-57
2022/05/28 01:40:51;;;;;;;;;;;;;;;10.57;84.73;97273.84;30001;983;1886;-58
2022/05/28 01:41:23;;;;;;;;;;;;;;;10.55;84.91;97268.69;30001;983;1881;-59
2022/05/28 01:41:54;;;;;;;;;;;;;;;10.56;84.71;97272.22;30001;983;1886;-57
2022/05/28 01:42:26;;;;;;;;;;;;;;;10.56;84.89;97270.31;30001;982;1868;-57
2022/05/28 01:43:01;;;;;;;;;;;;;;;10.54;85.19;97267.06;30001;982;1877;-58
2022/05/28 01:43:33;;;;;;;;;;;;;;;10.53;84.91;97270.88;30001;982;1882;-56
2022/05/28 01:44:07;;;;;;;;;;;;;;;10.53;85.16;97275.50;30001;982;1873;-57
2022/05/28 01:44:39;;;;;;;;;;;;;;;10.52;85.13;97274.69;30001;982;1873;-55
2022/05/28 01:45:13;;;;;;;;;;;;;;;10.51;84.83;97281.19;30001;982;1886;-56
2022/05/28 01:45:46;;;;;;;;;;;;;;;10.50;84.50;97276.88;30001;983;1881;-57
2022/05/28 01:46:18;;;;;;;;;;;;;;;10.50;84.08;97271.44;30001;983;1885;-57
2022/05/28 01:46:50;;;;;;;;;;;;;;;10.49;83.96;97272.53;30001;983;1868;-55
2022/05/28 01:47:22;;;;;;;;;;;;;;;10.48;82.97;97279.03;30001;983;1877;-57
2022/05/28 01:47:55;;;;;;;;;;;;;;;10.47;82.94;97273.91;30001;983;1881;-55
2022/05/28 01:48:27;;;;;;;;;;;;;;;10.45;82.89;97271.47;30001;983;1886;-58
2022/05/28 01:48:59;;;;;;;;;;;;;;;10.45;83.15;97271.47;30001;983;1881;-57
2022/05/28 01:49:31;;;;;;;;;;;;;;;10.44;83.40;97272.56;30001;983;1886;-57
2022/05/28 01:50:04;;;;;;;;;;;;;;;10.43;83.78;97276.38;30001;982;1881;-58
2022/05/28 01:50:38;;;;;;;;;;;;;;;10.40;83.51;97274.22;30001;982;1886;-58
2022/05/28 01:51:11;;;;;;;;;;;;;;;10.37;83.47;97272.91;30001;982;1882;-56
2022/05/28 01:52:01;;;;;;;;;;;;;;;10.37;84.05;97267.47;30001;982;1886;-57
2022/05/28 01:52:33;;;;;;;;;;;;;;;10.33;84.08;97271.84;30001;982;1869;-57
2022/05/28 01:53:08;;;;;;;;;;;;;;;10.32;83.97;97281.06;30001;982;1878;-58
2022/05/28 01:54:38;;;;;;;;;;;;;;;10.33;84.16;97284.59;30001;983;1886;-57
2022/05/28 01:55:11;;;;;;;;;;;;;;;10.33;83.96;97287.31;30001;983;1881;-56
2022/05/28 01:55:44;;;;;;;;;;;;;;;10.31;83.21;97279.44;30001;983;1886;-55
2022/05/28 01:56:15;;;;;;;;;;;;;;;10.32;83.43;97282.97;30001;983;1881;-56
2022/05/28 01:56:48;;;;;;;;;;;;;;;10.33;83.28;97292.72;30001;983;1873;-57
2022/05/28 01:57:21;;;;;;;;;;;;;;;10.31;82.91;97284.88;30001;983;1873;-57
2022/05/28 01:57:52;;;;;;;;;;;;;;;10.31;82.67;97286.78;30001;982;1886;-55
2022/05/28 01:58:23;;;;;;;;;;;;;;;10.37;80.98;97280.22;30001;982;1881;-57
2022/05/28 01:58:55;;;;;;;;;;;;;;;10.38;79.82;97276.44;30001;982;1886;-58
2022/05/28 01:59:28;;;;;;;;;;;;;;;10.36;78.61;97286.75;30001;982;1882;-58
2022/05/28 01:59:59;;;;;;;;;;;;;;;10.36;79.12;97286.75;30001;982;1886;-58
2022/05/28 02:00:30;;;;;;;;;;;;;;;10.36;79.84;97278.63;30001;982;1882;-58
2022/05/28 02:01:17;;;;;;;;;;;;;;;10.34;79.90;97272.66;30001;977;1885;-59
2022/05/28 02:01:48;;;;;;;;;;;;;;;10.33;80.05;97277.28;30001;983;1872;-57
2022/05/28 02:02:19;;;;;;;;;;;;;;;10.33;79.76;97279.16;30001;983;1886;-57
2022/05/28 02:02:50;;;;;;;;;;;;;;;10.32;79.71;97272.13;30001;983;1881;-57
2022/05/28 02:03:22;;;;;;;;;;;;;;;10.29;79.97;97275.41;30001;983;1886;-58
2022/05/28 02:03:56;;;;;;;;;;;;;;;10.29;81.12;97280.81;30001;983;1881;-57
2022/05/28 02:04:28;;;;;;;;;;;;;;;10.26;80.97;97281.38;30001;983;1886;-58
2022/05/28 02:04:59;;;;;;;;;;;;;;;10.26;80.95;97270.53;30001;982;1868;-57
2022/05/28 02:05:31;;;;;;;;;;;;;;;10.24;81.16;97275.44;30001;982;1864;-57
2022/05/28 02:06:03;;;;;;;;;;;;;;;10.23;81.01;97277.31;30001;982;1815;-57
2022/05/28 02:06:37;;;;;;;;;;;;;;;10.24;80.41;97280.84;30001;982;1886;-56
2022/05/28 02:07:08;;;;;;;;;;;;;;;10.27;80.65;97280.28;30001;982;1882;-57
2022/05/28 02:07:40;;;;;;;;;;;;;;;10.28;79.82;97273.78;30001;982;1886;-57
2022/05/28 02:08:11;;;;;;;;;;;;;;;10.29;80.04;97275.41;30001;982;1882;-57
2022/05/28 02:08:44;;;;;;;;;;;;;;;10.30;79.74;97271.59;30001;983;1885;-57
2022/05/28 02:09:17;;;;;;;;;;;;;;;10.31;79.42;97267.78;30001;983;1881;-57
2022/05/28 02:09:51;;;;;;;;;;;;;;;10.33;78.74;97265.59;30001;983;1873;-58
2022/05/28 02:10:23;;;;;;;;;;;;;;;10.34;77.90;97264.50;30001;983;1873;-57
2022/05/28 02:11:09;;;;;;;;;;;;;;;10.32;76.81;97266.69;30001;983;1886;-57
2022/05/28 02:12:00;;;;;;;;;;;;;;;10.31;77.27;97273.22;30001;983;1881;-57
2022/05/28 02:12:33;;;;;;;;;;;;;;;10.29;78.18;97272.69;30001;982;1882;-58
2022/05/28 02:13:09;;;;;;;;;;;;;;;10.26;78.05;97271.34;30001;982;1882;-55
2022/05/28 02:13:54;;;;;;;;;;;;;;;10.25;77.42;97272.44;30001;982;1886;-56
2022/05/28 02:14:37;;;;;;;;;;;;;;;10.21;77.26;97276.78;30001;982;1869;-57
2022/05/28 02:15:17;;;;;;;;;;;;;;;10.19;78.31;97270.00;30001;983;1876;-58
2022/05/28 02:15:53;;;;;;;;;;;;;;;10.17;78.67;97278.41;30001;983;1868;-57
2022/05/28 02:16:29;;;;;;;;;;;;;;;10.19;78.13;97275.41;30001;983;1876;-58
2022/05/28 02:17:29;;;;;;;;;;;;;;;10.19;78.75;97273.56;30001;983;1881;-57
2022/05/28 02:18:06;;;;;;;;;;;;;;;10.18;77.90;97273.81;30001;983;1882;-57
2022/05/28 02:18:45;;;;;;;;;;;;;;;10.18;78.28;97276.50;30001;983;1881;-57
2022/05/28 02:19:39;;;;;;;;;;;;;;;10.17;77.85;97274.88;30001;983;1886;-57
2022/05/28 02:20:33;;;;;;;;;;;;;;;10.14;77.14;97268.12;30001;982;1877;-57
2022/05/28 02:21:11;;;;;;;;;;;;;;;10.11;77.94;97267.88;30001;982;1873;-57
2022/05/28 02:21:43;;;;;;;;;;;;;;;10.10;78.36;97269.78;30001;982;1873;-57
2022/05/28 02:22:24;;;;;;;;;;;;;;;10.07;77.17;97273.03;30001;982;1886;-58
2022/05/28 02:22:57;;;;;;;;;;;;;;;10.04;77.60;97270.91;30001;983;1881;-56
2022/05/28 02:23:38;;;;;;;;;;;;;;;10.03;77.94;97261.97;30001;983;1886;-57
2022/05/28 02:24:32;;;;;;;;;;;;;;;10.03;78.84;97270.09;30001;983;1881;-58
2022/05/28 02:25:18;;;;;;;;;;;;;;;10.02;78.93;97271.19;30001;983;1881;-57
2022/05/28 02:26:14;;;;;;;;;;;;;;;10.03;78.55;97261.97;30001;983;1868;-58
2022/05/28 02:26:48;;;;;;;;;;;;;;;10.04;78.17;97269.03;30001;983;1873;-57
2022/05/28 02:27:20;;;;;;;;;;;;;;;10.05;77.84;97270.59;30001;983;1882;-57
2022/05/28 02:27:55;;;;;;;;;;;;;;;10.05;77.04;97265.19;30001;982;1886;-58
2022/05/28 02:28:28;;;;;;;;;;;;;;;10.05;76.98;97264.37;30001;982;1869;-57
2022/05/28 02:28:59;;;;;;;;;;;;;;;10.02;76.72;97265.78;30001;982;1877;-57
2022/05/28 02:29:31;;;;;;;;;;;;;;;10.01;76.75;97263.34;30001;982;1882;-58
2022/05/28 02:30:03;;;;;;;;;;;;;;;10.04;75.04;97263.59;30001;982;1886;-58
2022/05/28 02:30:44;;;;;;;;;;;;;;;10.03;74.76;97264.69;30001;983;1881;-58
2022/05/28 02:31:17;;;;;;;;;;;;;;;10.05;75.50;97265.19;30001;983;1885;-57
2022/05/28 02:31:49;;;;;;;;;;;;;;;10.09;75.65;97265.44;30001;983;1868;-58
2022/05/28 02:32:22;;;;;;;;;;;;;;;10.09;75.48;97265.44;30001;983;1877;-57
2022/05/28 02:33:03;;;;;;;;;;;;;;;10.13;74.29;97265.69;30001;983;1881;-56
2022/05/28 02:33:34;;;;;;;;;;;;;;;10.13;73.52;97260.28;30001;983;1886;-57
2022/05/28 02:34:05;;;;;;;;;;;;;;;10.14;73.37;97261.88;30001;983;1868;-57
2022/05/28 02:34:36;;;;;;;;;;;;;;;10.13;73.04;97260.28;30001;983;1877;-58
2022/05/28 02:35:08;;;;;;;;;;;;;;;10.16;73.48;97259.72;30001;983;1882;-57
2022/05/28 02:35:39;;;;;;;;;;;;;;;10.16;72.81;97265.13;30001;982;1886;-57
2022/05/28 02:36:12;;;;;;;;;;;;;;;10.14;73.60;97265.41;30001;969;1908;-58
2022/05/28 02:36:46;;;;;;;;;;;;;;;10.13;74.25;97260.28;30001;982;1873;-57
2022/05/28 02:37:19;;;;;;;;;;;;;;;10.13;74.88;97265.69;30001;982;1873;-57
2022/05/28 02:37:50;;;;;;;;;;;;;;;10.11;74.20;97263.25;30001;983;1885;-58
2022/05/28 02:38:21;;;;;;;;;;;;;;;10.11;74.17;97262.44;30001;983;1881;-57
2022/05/28 02:38:52;;;;;;;;;;;;;;;10.07;74.30;97262.19;30001;983;1885;-57
2022/05/28 02:39:23;;;;;;;;;;;;;;;10.04;74.48;97260.06;30001;983;1881;-58
2022/05/28 02:39:57;;;;;;;;;;;;;;;10.01;74.89;97261.44;30001;983;1886;-57
2022/05/28 02:40:28;;;;;;;;;;;;;;;10.01;75.37;97264.16;30001;983;1881;-56
2022/05/28 02:41:02;;;;;;;;;;;;;;;10.00;75.55;97265.25;30001;983;1886;-57
2022/05/28 02:41:33;;;;;;;;;;;;;;;9.97;75.64;97263.09;30001;981;1877;-58
2022/05/28 02:42:07;;;;;;;;;;;;;;;9.93;76.22;97270.16;30001;983;1877;-58
2022/05/28 02:42:38;;;;;;;;;;;;;;;9.96;75.76;97266.06;30001;983;1882;-58
2022/05/28 02:43:09;;;;;;;;;;;;;;;9.95;75.50;97265.25;30001;982;1873;-57
2022/05/28 02:43:41;;;;;;;;;;;;;;;9.93;75.13;97262.03;30001;982;1873;-57
2022/05/28 02:44:13;;;;;;;;;;;;;;;9.89;74.98;97260.97;30001;982;1886;-56
2022/05/28 02:44:44;;;;;;;;;;;;;;;9.89;75.20;97271.00;30001;982;1869;-56
2022/05/28 02:45:15;;;;;;;;;;;;;;;9.87;74.80;97263.13;30001;983;1876;-55
2022/05/28 02:45:48;;;;;;;;;;;;;;;9.85;74.82;97259.06;30001;983;1881;-57
2022/05/28 02:46:20;;;;;;;;;;;;;;;9.83;75.13;97262.06;30001;971;1906;-57
2022/05/28 02:46:54;;;;;;;;;;;;;;;9.79;76.27;97260.19;30001;965;1803;-56
2022/05/28 02:47:28;;;;;;;;;;;;;;;9.74;76.48;97264.53;30001;983;1886;-56
2022/05/28 02:47:59;;;;;;;;;;;;;;;9.73;78.09;97262.09;30001;983;1881;-58
2022/05/28 02:48:30;;;;;;;;;;;;;;;9.69;78.35;97263.78;30001;983;1886;-57
2022/05/28 02:49:02;;;;;;;;;;;;;;;9.68;77.54;97265.69;30001;983;1868;-58
2022/05/28 02:49:33;;;;;;;;;;;;;;;9.68;76.58;97267.56;30001;982;1877;-57
2022/05/28 02:50:04;;;;;;;;;;;;;;;9.67;75.84;97263.25;30001;982;1882;-57
2022/05/28 02:50:35;;;;;;;;;;;;;;;9.66;75.52;97262.44;30001;982;1886;-57
2022/05/28 02:51:07;;;;;;;;;;;;;;;9.66;76.14;97262.44;30001;982;1882;-57
2022/05/28 02:51:38;;;;;;;;;;;;;;;9.65;75.63;97260.81;30001;982;1873;-55
2022/05/28 02:52:12;;;;;;;;;;;;;;;9.64;75.53;97258.38;30001;982;1873;-57
2022/05/28 02:52:43;;;;;;;;;;;;;;;9.65;75.04;97254.59;30001;982;1886;-57
2022/05/28 02:53:14;;;;;;;;;;;;;;;9.64;75.20;97258.38;30001;982;1882;-56
2022/05/28 02:53:46;;;;;;;;;;;;;;;9.62;75.15;97255.13;30001;983;1872;-55
2022/05/28 02:54:17;;;;;;;;;;;;;;;9.62;75.72;97257.84;30001;983;1873;-56
2022/05/28 02:54:47;;;;;;;;;;;;;;;9.61;75.29;97253.50;30001;983;1886;-60
2022/05/28 02:55:18;;;;;;;;;;;;;;;9.63;74.91;97252.16;30001;983;1881;-58
2022/05/28 02:55:49;;;;;;;;;;;;;;;9.64;74.62;97258.38;30001;983;1886;-57
2022/05/28 02:56:22;;;;;;;;;;;;;;;9.66;75.08;97256.19;30001;961;1903;-57
2022/05/28 02:56:54;;;;;;;;;;;;;;;9.69;75.25;97255.66;30001;983;1873;-56
2022/05/28 02:57:25;;;;;;;;;;;;;;;9.67;74.00;97253.22;30001;982;1873;-55
2022/05/28 02:57:56;;;;;;;;;;;;;;;9.66;73.43;97257.00;30001;982;1886;-57
2022/05/28 02:58:29;;;;;;;;;;;;;;;9.65;74.11;97254.59;30001;982;1882;-57
2022/05/28 02:59:00;;;;;;;;;;;;;;;9.64;74.18;97258.38;30001;982;1886;-57
2022/05/28 02:59:32;;;;;;;;;;;;;;;9.66;74.36;97256.19;30001;982;1869;-57
2022/05/28 03:00:03;;;;;;;;;;;;;;;9.64;74.46;97252.97;30001;982;1878;-56
2022/05/28 03:00:35;;;;;;;;;;;;;;;9.62;75.12;97255.94;30001;983;1881;-56
2022/05/28 03:01:20;;;;;;;;;;;;;;;9.61;75.02;97258.94;30001;983;1885;-56
2022/05/28 03:01:51;;;;;;;;;;;;;;;9.60;75.28;97257.31;30001;983;1868;-57
2022/05/28 03:02:22;;;;;;;;;;;;;;;9.57;74.82;97257.84;30001;983;1877;-55
2022/05/28 03:02:54;;;;;;;;;;;;;;;9.56;75.05;97254.34;30001;983;1882;-57
2022/05/28 03:03:26;;;;;;;;;;;;;;;9.56;75.09;97258.94;30001;983;1886;-57
2022/05/28 03:03:57;;;;;;;;;;;;;;;9.54;74.25;97259.22;30001;983;1882;-57
2022/05/28 03:04:28;;;;;;;;;;;;;;;9.54;73.96;97261.12;30001;983;1886;-58
2022/05/28 03:04:59;;;;;;;;;;;;;;;9.55;74.12;97260.03;30001;982;1882;-57
2022/05/28 03:05:30;;;;;;;;;;;;;;;9.56;74.34;97256.25;30001;982;1873;-58